createdAt,value
2018-06-30T00:00:34.242Z,22.70
2018-06-30T00:01:38.377Z,22.70
2018-06-30T00:02:42.463Z,22.60
2018-06-30T00:03:51.894Z,22.60
2018-06-30T00:04:56.023Z,22.60
2018-06-30T00:06:00.162Z,22.60
2018-06-30T00:07:04.265Z,22.60
2018-06-30T00:08:08.451Z,22.60
2018-06-30T00:09:12.563Z,22.60
2018-06-30T00:10:32.064Z,22.60
2018-06-30T00:11:36.781Z,22.60
2018-06-30T00:12:41.006Z,22.60
2018-06-30T00:13:45.103Z,22.60
2018-06-30T00:14:49.302Z,22.60
2018-06-30T00:15:53.445Z,22.60
2018-06-30T00:16:57.521Z,22.60
2018-06-30T00:20:09.133Z,22.50
2018-06-30T00:21:13.271Z,22.50
2018-06-30T00:22:17.344Z,22.50
2018-06-30T00:23:21.492Z,22.50
2018-06-30T00:24:25.576Z,22.50
2018-06-30T00:25:29.667Z,22.50
2018-06-30T00:26:33.831Z,22.40
2018-06-30T00:27:37.896Z,22.40
2018-06-30T00:28:42.024Z,22.40
2018-06-30T00:29:46.170Z,22.30
2018-06-30T00:30:50.319Z,22.30
2018-06-30T00:31:54.466Z,22.30
2018-06-30T00:32:58.584Z,22.30
2018-06-30T00:34:02.708Z,22.20
2018-06-30T00:35:06.770Z,22.20
2018-06-30T00:36:10.996Z,22.20
2018-06-30T00:37:15.129Z,22.20
2018-06-30T00:38:19.335Z,22.20
2018-06-30T00:39:23.391Z,22.10
2018-06-30T00:41:31.341Z,22.10
2018-06-30T00:42:35.434Z,22.10
2018-06-30T00:43:39.502Z,22.10
2018-06-30T00:44:43.673Z,22.10
2018-06-30T00:45:47.899Z,22.10
2018-06-30T00:46:52.013Z,22.10
2018-06-30T00:47:56.257Z,22.10
2018-06-30T00:49:00.405Z,22.10
2018-06-30T00:50:04.946Z,22.00
2018-06-30T00:51:09.083Z,22.10
2018-06-30T00:52:13.381Z,22.00
2018-06-30T00:53:17.472Z,22.00
2018-06-30T00:54:21.623Z,22.10
2018-06-30T00:55:25.727Z,22.00
2018-06-30T00:56:29.935Z,22.00
2018-06-30T00:57:33.986Z,22.00
2018-06-30T00:58:38.147Z,22.00
2018-06-30T00:59:42.329Z,22.00
2018-06-30T01:00:46.497Z,22.00
2018-06-30T01:01:50.640Z,22.00
2018-06-30T01:02:54.856Z,22.00
2018-06-30T01:03:58.948Z,22.00
2018-06-30T01:05:03.124Z,22.00
2018-06-30T01:06:07.265Z,22.00
2018-06-30T01:07:11.419Z,22.00
2018-06-30T01:08:15.560Z,22.00
2018-06-30T01:09:19.651Z,22.00
2018-06-30T01:10:23.739Z,22.00
2018-06-30T01:11:27.885Z,22.00
2018-06-30T01:12:32.042Z,22.00
2018-06-30T01:13:36.103Z,22.00
2018-06-30T01:14:40.193Z,22.00
2018-06-30T01:15:44.343Z,22.00
2018-06-30T01:16:48.574Z,21.90
2018-06-30T01:17:52.712Z,21.90
2018-06-30T01:18:56.817Z,21.90
2018-06-30T01:20:00.943Z,21.90
2018-06-30T01:22:09.209Z,21.90
2018-06-30T01:23:13.546Z,21.90
2018-06-30T01:24:17.716Z,21.90
2018-06-30T01:25:21.829Z,21.80
2018-06-30T01:26:26.576Z,21.80
2018-06-30T01:27:30.755Z,21.80
2018-06-30T01:28:34.847Z,21.80
2018-06-30T01:29:38.971Z,21.80
2018-06-30T01:30:43.067Z,21.80
2018-06-30T01:31:47.241Z,21.80
2018-06-30T01:32:51.316Z,21.80
2018-06-30T01:34:59.086Z,21.80
2018-06-30T01:36:03.222Z,21.80
2018-06-30T01:38:11.049Z,21.70
2018-06-30T01:39:15.190Z,21.70
2018-06-30T01:41:23.108Z,21.70
2018-06-30T01:42:27.213Z,21.70
2018-06-30T01:43:31.286Z,21.70
2018-06-30T01:44:35.415Z,21.70
2018-06-30T01:45:39.571Z,21.70
2018-06-30T01:46:43.729Z,21.70
2018-06-30T01:47:47.812Z,21.70
2018-06-30T01:48:51.919Z,21.60
2018-06-30T01:49:56.058Z,21.60
2018-06-30T01:51:06.320Z,21.60
2018-06-30T01:52:16.384Z,21.60
2018-06-30T01:53:26.441Z,21.50
2018-06-30T01:54:36.589Z,21.50
2018-06-30T01:55:46.777Z,21.50
2018-06-30T01:56:50.981Z,21.50
2018-06-30T01:57:55.063Z,21.50
2018-06-30T01:58:59.241Z,21.40
2018-06-30T02:00:03.410Z,21.40
2018-06-30T02:01:07.605Z,21.40
2018-06-30T02:02:11.731Z,21.40
2018-06-30T02:03:15.840Z,21.40
2018-06-30T02:04:19.921Z,21.30
2018-06-30T02:05:24.085Z,21.30
2018-06-30T02:06:28.215Z,21.30
2018-06-30T02:07:32.404Z,21.30
2018-06-30T02:08:36.743Z,21.30
2018-06-30T02:09:40.937Z,21.20
2018-06-30T02:10:45.077Z,21.20
2018-06-30T02:11:49.913Z,21.20
2018-06-30T02:12:54.020Z,21.20
2018-06-30T02:13:58.091Z,21.20
2018-06-30T02:15:02.229Z,21.10
2018-06-30T02:16:06.333Z,21.10
2018-06-30T02:17:10.517Z,21.10
2018-06-30T02:18:14.584Z,21.10
2018-06-30T02:19:18.697Z,21.10
2018-06-30T02:20:22.888Z,21.00
2018-06-30T02:21:26.991Z,21.00
2018-06-30T02:22:31.095Z,21.00
2018-06-30T02:23:35.313Z,21.00
2018-06-30T02:25:43.324Z,21.00
2018-06-30T02:26:47.425Z,21.00
2018-06-30T02:27:51.582Z,21.00
2018-06-30T02:28:55.720Z,21.00
2018-06-30T02:29:59.910Z,21.00
2018-06-30T02:31:03.942Z,21.00
2018-06-30T02:32:08.180Z,21.00
2018-06-30T02:33:12.232Z,21.00
2018-06-30T02:34:16.457Z,21.00
2018-06-30T02:35:20.662Z,20.90
2018-06-30T02:36:24.777Z,20.90
2018-06-30T02:37:28.909Z,20.90
2018-06-30T02:39:36.695Z,20.90
2018-06-30T02:40:40.864Z,20.90
2018-06-30T02:41:44.966Z,20.90
2018-06-30T02:42:49.171Z,20.90
2018-06-30T02:43:53.441Z,20.90
2018-06-30T02:44:57.642Z,20.80
2018-06-30T02:46:02.009Z,20.80
2018-06-30T02:47:06.036Z,20.80
2018-06-30T02:48:10.157Z,20.80
2018-06-30T02:49:14.250Z,20.80
2018-06-30T02:50:18.414Z,20.80
2018-06-30T02:51:22.582Z,20.80
2018-06-30T02:52:27.033Z,20.80
2018-06-30T02:53:31.147Z,20.80
2018-06-30T02:54:35.323Z,20.80
2018-06-30T02:55:39.573Z,20.80
2018-06-30T02:56:43.722Z,20.70
2018-06-30T02:57:47.851Z,20.70
2018-06-30T02:58:51.941Z,20.70
2018-06-30T02:59:56.085Z,20.70
2018-06-30T03:01:00.217Z,20.70
2018-06-30T03:02:04.320Z,20.70
2018-06-30T03:03:08.481Z,20.70
2018-06-30T03:04:12.581Z,20.60
2018-06-30T03:05:16.720Z,20.60
2018-06-30T03:06:20.915Z,20.60
2018-06-30T03:07:25.060Z,20.60
2018-06-30T03:08:29.103Z,20.60
2018-06-30T03:09:33.174Z,20.60
2018-06-30T03:10:37.369Z,20.60
2018-06-30T03:12:45.433Z,20.60
2018-06-30T03:13:49.556Z,20.50
2018-06-30T03:14:53.687Z,20.60
2018-06-30T03:15:57.813Z,20.50
2018-06-30T03:17:01.922Z,20.50
2018-06-30T03:18:06.060Z,20.50
2018-06-30T03:19:10.368Z,20.50
2018-06-30T03:20:14.374Z,20.50
2018-06-30T03:21:21.361Z,20.50
2018-06-30T03:22:25.534Z,20.50
2018-06-30T03:24:33.390Z,20.40
2018-06-30T03:25:37.456Z,20.50
2018-06-30T03:26:41.595Z,20.40
2018-06-30T03:27:45.818Z,20.50
2018-06-30T03:28:49.921Z,20.50
2018-06-30T03:29:54.099Z,20.40
2018-06-30T03:30:58.195Z,20.40
2018-06-30T03:32:02.287Z,20.40
2018-06-30T03:33:06.465Z,20.40
2018-06-30T03:34:10.541Z,20.50
2018-06-30T03:35:14.636Z,20.40
2018-06-30T03:36:18.752Z,20.40
2018-06-30T03:37:22.794Z,20.50
2018-06-30T03:38:26.917Z,20.50
2018-06-30T03:39:31.082Z,20.50
2018-06-30T03:40:35.217Z,20.50
2018-06-30T03:41:39.328Z,20.50
2018-06-30T03:42:43.488Z,20.50
2018-06-30T03:43:47.614Z,20.50
2018-06-30T03:44:51.716Z,20.50
2018-06-30T03:45:55.805Z,20.50
2018-06-30T03:46:59.933Z,20.50
2018-06-30T03:48:04.396Z,20.50
2018-06-30T03:49:08.806Z,20.50
2018-06-30T03:50:12.974Z,20.50
2018-06-30T03:51:17.091Z,20.40
2018-06-30T03:52:21.197Z,20.40
2018-06-30T03:53:25.303Z,20.40
2018-06-30T03:54:29.429Z,20.40
2018-06-30T03:55:33.584Z,20.40
2018-06-30T03:56:37.783Z,20.40
2018-06-30T03:57:41.992Z,20.40
2018-06-30T03:58:46.160Z,20.40
2018-06-30T03:59:50.244Z,20.40
2018-06-30T04:00:54.371Z,20.40
2018-06-30T04:01:58.477Z,20.40
2018-06-30T04:03:02.630Z,20.40
2018-06-30T04:04:06.911Z,20.40
2018-06-30T04:05:11.053Z,20.40
2018-06-30T04:06:15.165Z,20.40
2018-06-30T04:07:19.291Z,20.40
2018-06-30T04:08:23.432Z,20.40
2018-06-30T04:09:27.548Z,20.40
2018-06-30T04:10:31.668Z,20.40
2018-06-30T04:11:35.985Z,20.40
2018-06-30T04:13:43.933Z,20.40
2018-06-30T04:14:48.112Z,20.40
2018-06-30T04:15:52.223Z,20.40
2018-06-30T04:16:56.421Z,20.40
2018-06-30T04:18:00.535Z,20.40
2018-06-30T04:19:10.093Z,20.50
2018-06-30T04:20:14.261Z,20.50
2018-06-30T04:21:18.391Z,20.50
2018-06-30T04:22:22.481Z,20.50
2018-06-30T04:23:26.635Z,20.50
2018-06-30T04:24:30.782Z,20.50
2018-06-30T04:25:35.067Z,20.50
2018-06-30T04:26:40.012Z,20.50
2018-06-30T04:27:44.157Z,20.50
2018-06-30T04:28:48.285Z,20.50
2018-06-30T04:29:52.346Z,20.50
2018-06-30T04:30:56.568Z,20.50
2018-06-30T04:32:00.757Z,20.50
2018-06-30T04:33:05.252Z,20.50
2018-06-30T04:34:09.647Z,20.50
2018-06-30T04:35:13.786Z,20.50
2018-06-30T04:36:17.908Z,20.50
2018-06-30T04:37:22.093Z,20.50
2018-06-30T04:38:26.201Z,20.50
2018-06-30T04:39:30.376Z,20.50
2018-06-30T04:40:34.532Z,20.50
2018-06-30T04:41:38.713Z,20.50
2018-06-30T04:42:42.842Z,20.50
2018-06-30T04:43:46.926Z,20.50
2018-06-30T04:44:51.072Z,20.60
2018-06-30T04:45:55.148Z,20.60
2018-06-30T04:46:59.303Z,20.60
2018-06-30T04:48:03.383Z,20.60
2018-06-30T04:49:07.487Z,20.60
2018-06-30T04:50:11.657Z,20.60
2018-06-30T04:51:15.838Z,20.60
2018-06-30T04:52:20.018Z,20.60
2018-06-30T04:53:24.137Z,20.60
2018-06-30T04:54:28.231Z,20.60
2018-06-30T04:55:32.343Z,20.60
2018-06-30T04:56:36.387Z,20.60
2018-06-30T04:57:40.513Z,20.60
2018-06-30T04:58:44.658Z,20.60
2018-06-30T04:59:48.768Z,20.60
2018-06-30T05:00:52.973Z,20.60
2018-06-30T05:01:57.033Z,20.60
2018-06-30T05:03:01.241Z,20.60
2018-06-30T05:04:05.305Z,20.60
2018-06-30T05:05:09.428Z,20.70
2018-06-30T05:06:13.571Z,20.70
2018-06-30T05:08:21.437Z,20.70
2018-06-30T05:09:25.645Z,20.70
2018-06-30T05:10:29.762Z,20.70
2018-06-30T05:11:33.957Z,20.70
2018-06-30T05:13:41.743Z,20.70
2018-06-30T05:14:45.976Z,20.80
2018-06-30T05:15:50.293Z,20.80
2018-06-30T05:16:54.401Z,20.80
2018-06-30T05:17:58.573Z,20.80
2018-06-30T05:19:02.688Z,20.80
2018-06-30T05:20:06.981Z,20.80
2018-06-30T05:21:11.089Z,20.80
2018-06-30T05:22:15.210Z,20.80
2018-06-30T05:23:19.297Z,20.80
2018-06-30T05:24:23.422Z,20.90
2018-06-30T05:25:28.001Z,20.90
2018-06-30T05:26:32.175Z,20.90
2018-06-30T05:27:36.510Z,20.90
2018-06-30T05:28:40.721Z,21.00
2018-06-30T05:29:44.824Z,21.00
2018-06-30T05:30:48.953Z,21.00
2018-06-30T05:31:53.043Z,21.00
2018-06-30T05:32:57.154Z,21.00
2018-06-30T05:34:01.277Z,21.10
2018-06-30T05:35:05.513Z,21.10
2018-06-30T05:36:09.678Z,21.10
2018-06-30T05:37:13.782Z,21.20
2018-06-30T05:38:17.943Z,21.20
2018-06-30T05:39:22.017Z,21.20
2018-06-30T05:40:26.093Z,21.20
2018-06-30T05:41:30.203Z,21.30
2018-06-30T05:42:34.348Z,21.30
2018-06-30T05:43:38.587Z,21.30
2018-06-30T05:44:42.751Z,21.40
2018-06-30T05:45:46.920Z,21.40
2018-06-30T05:46:51.177Z,21.40
2018-06-30T05:47:55.420Z,21.40
2018-06-30T05:48:59.613Z,21.40
2018-06-30T05:50:03.753Z,21.50
2018-06-30T05:51:07.875Z,21.50
2018-06-30T05:52:12.049Z,21.50
2018-06-30T05:53:16.180Z,21.50
2018-06-30T05:54:20.293Z,21.50
2018-06-30T05:55:24.417Z,21.60
2018-06-30T05:56:28.499Z,21.60
2018-06-30T05:58:36.306Z,21.60
2018-06-30T05:59:40.492Z,21.60
2018-06-30T06:00:44.621Z,21.60
2018-06-30T06:01:48.706Z,21.70
2018-06-30T06:02:52.787Z,21.70
2018-06-30T06:03:56.911Z,21.70
2018-06-30T06:05:01.062Z,21.70
2018-06-30T06:06:05.327Z,21.70
2018-06-30T06:07:09.505Z,21.70
2018-06-30T06:08:13.664Z,21.70
2018-06-30T06:09:17.802Z,21.80
2018-06-30T06:10:21.953Z,21.80
2018-06-30T06:11:26.082Z,21.80
2018-06-30T06:12:30.247Z,21.80
2018-06-30T06:13:34.396Z,21.80
2018-06-30T06:14:38.537Z,21.80
2018-06-30T06:15:42.765Z,21.90
2018-06-30T06:16:46.893Z,21.90
2018-06-30T06:17:51.065Z,21.90
2018-06-30T06:18:55.131Z,21.90
2018-06-30T06:19:59.297Z,21.90
2018-06-30T06:21:03.545Z,22.00
2018-06-30T06:22:07.656Z,22.00
2018-06-30T06:23:11.826Z,22.00
2018-06-30T06:24:15.979Z,22.00
2018-06-30T06:25:20.099Z,22.00
2018-06-30T06:26:24.325Z,22.10
2018-06-30T06:27:28.526Z,22.10
2018-06-30T06:28:32.643Z,22.10
2018-06-30T06:29:36.990Z,22.20
2018-06-30T06:30:41.035Z,22.20
2018-06-30T06:31:45.200Z,22.20
2018-06-30T06:32:49.378Z,22.20
2018-06-30T06:33:53.470Z,22.20
2018-06-30T06:34:57.557Z,22.30
2018-06-30T06:36:01.779Z,22.30
2018-06-30T06:37:06.255Z,22.30
2018-06-30T06:38:10.437Z,22.30
2018-06-30T06:39:14.639Z,22.40
2018-06-30T06:40:18.823Z,22.40
2018-06-30T06:41:22.996Z,22.40
2018-06-30T06:42:27.149Z,22.50
2018-06-30T06:43:31.252Z,22.50
2018-06-30T06:44:35.562Z,22.60
2018-06-30T06:45:39.602Z,22.60
2018-06-30T06:46:43.665Z,22.70
2018-06-30T06:47:47.853Z,22.70
2018-06-30T06:48:51.922Z,22.80
2018-06-30T06:49:56.060Z,22.80
2018-06-30T06:51:00.232Z,22.90
2018-06-30T06:52:04.434Z,22.90
2018-06-30T06:53:08.542Z,23.00
2018-06-30T06:54:12.614Z,23.10
2018-06-30T06:55:16.725Z,23.10
2018-06-30T06:57:24.568Z,23.20
2018-06-30T06:58:28.739Z,23.30
2018-06-30T06:59:32.842Z,23.30
2018-06-30T07:00:36.911Z,23.40
2018-06-30T07:01:40.995Z,23.40
2018-06-30T07:02:45.183Z,23.40
2018-06-30T07:03:49.365Z,23.50
2018-06-30T07:04:53.546Z,23.50
2018-06-30T07:05:57.711Z,23.60
2018-06-30T07:07:01.981Z,23.60
2018-06-30T07:08:06.107Z,23.70
2018-06-30T07:09:11.645Z,23.70
2018-06-30T07:10:15.890Z,23.70
2018-06-30T07:11:19.964Z,23.70
2018-06-30T07:12:24.120Z,23.80
2018-06-30T07:13:28.249Z,23.80
2018-06-30T07:14:32.326Z,23.80
2018-06-30T07:16:40.313Z,23.80
2018-06-30T07:17:44.405Z,23.90
2018-06-30T07:18:48.566Z,23.90
2018-06-30T07:19:52.722Z,24.00
2018-06-30T07:20:56.813Z,24.00
2018-06-30T07:22:00.989Z,24.00
2018-06-30T07:23:05.173Z,24.00
2018-06-30T07:24:09.345Z,24.00
2018-06-30T07:26:17.262Z,24.10
2018-06-30T07:27:21.416Z,24.10
2018-06-30T07:28:25.725Z,24.10
2018-06-30T07:29:29.753Z,24.10
2018-06-30T07:30:33.890Z,24.10
2018-06-30T07:31:38.164Z,24.10
2018-06-30T07:32:42.273Z,24.20
2018-06-30T07:34:50.277Z,24.20
2018-06-30T07:35:54.446Z,24.30
2018-06-30T07:36:58.520Z,24.30
2018-06-30T07:38:02.638Z,24.30
2018-06-30T07:39:08.768Z,24.30
2018-06-30T07:40:12.923Z,24.40
2018-06-30T07:41:17.093Z,24.40
2018-06-30T07:42:21.333Z,24.40
2018-06-30T07:43:25.776Z,24.50
2018-06-30T07:45:33.599Z,24.60
2018-06-30T07:46:37.833Z,24.60
2018-06-30T07:47:41.952Z,24.70
2018-06-30T07:48:46.068Z,24.80
2018-06-30T07:49:50.511Z,24.80
2018-06-30T07:50:54.596Z,24.90
2018-06-30T07:51:58.745Z,25.00
2018-06-30T07:53:02.873Z,25.00
2018-06-30T07:54:07.087Z,25.10
2018-06-30T07:55:11.352Z,25.10
2018-06-30T07:56:15.309Z,25.20
2018-06-30T07:58:23.219Z,25.30
2018-06-30T07:59:27.569Z,25.30
2018-06-30T08:00:31.813Z,25.40
2018-06-30T08:01:35.791Z,25.50
2018-06-30T08:02:39.931Z,25.50
2018-06-30T08:03:44.024Z,25.50
2018-06-30T08:04:48.130Z,25.60
2018-06-30T08:05:52.190Z,25.60
2018-06-30T08:06:56.317Z,25.70
2018-06-30T08:08:00.625Z,25.70
2018-06-30T08:09:07.372Z,25.70
2018-06-30T08:10:11.595Z,25.80
2018-06-30T08:11:15.733Z,25.80
2018-06-30T08:12:19.919Z,25.80
2018-06-30T08:13:24.023Z,25.90
2018-06-30T08:14:28.160Z,25.90
2018-06-30T08:15:32.362Z,26.00
2018-06-30T08:16:36.551Z,26.00
2018-06-30T08:17:40.705Z,26.10
2018-06-30T08:18:44.809Z,26.10
2018-06-30T08:19:48.980Z,26.20
2018-06-30T08:20:53.153Z,26.20
2018-06-30T08:21:57.275Z,26.30
2018-06-30T08:23:01.481Z,26.30
2018-06-30T08:24:05.644Z,26.40
2018-06-30T08:25:09.795Z,26.50
2018-06-30T08:26:14.250Z,26.50
2018-06-30T08:27:18.289Z,26.60
2018-06-30T08:28:22.473Z,26.70
2018-06-30T08:29:26.641Z,26.70
2018-06-30T08:30:30.743Z,26.80
2018-06-30T08:31:34.913Z,26.90
2018-06-30T08:32:39.052Z,27.00
2018-06-30T08:34:47.025Z,27.10
2018-06-30T08:35:51.139Z,27.20
2018-06-30T08:36:55.315Z,27.30
2018-06-30T08:37:59.579Z,27.40
2018-06-30T08:39:05.837Z,27.40
2018-06-30T08:40:09.985Z,27.50
2018-06-30T08:41:14.091Z,27.60
2018-06-30T08:42:18.144Z,27.70
2018-06-30T08:43:22.270Z,27.70
2018-06-30T08:44:26.473Z,27.80
2018-06-30T08:45:30.563Z,27.80
2018-06-30T08:46:34.674Z,27.90
2018-06-30T08:47:39.051Z,28.00
2018-06-30T08:49:46.774Z,28.10
2018-06-30T08:50:50.879Z,28.20
2018-06-30T08:51:55.044Z,28.30
2018-06-30T08:52:59.239Z,28.30
2018-06-30T08:54:03.507Z,28.40
2018-06-30T08:55:07.667Z,28.50
2018-06-30T08:56:11.895Z,28.50
2018-06-30T08:57:16.059Z,28.60
2018-06-30T08:58:20.220Z,28.60
2018-06-30T08:59:24.280Z,28.70
2018-06-30T09:00:28.574Z,28.80
2018-06-30T09:01:32.773Z,28.80
2018-06-30T09:02:36.883Z,28.90
2018-06-30T09:03:41.059Z,29.00
2018-06-30T09:04:45.066Z,29.00
2018-06-30T09:05:49.208Z,29.10
2018-06-30T09:06:53.331Z,29.20
2018-06-30T09:07:57.442Z,29.20
2018-06-30T09:09:01.599Z,29.30
2018-06-30T09:10:05.744Z,29.30
2018-06-30T09:11:09.839Z,29.40
2018-06-30T09:12:14.083Z,29.40
2018-06-30T09:13:18.245Z,29.50
2018-06-30T09:14:22.344Z,29.50
2018-06-30T09:15:26.499Z,29.60
2018-06-30T09:16:30.619Z,29.60
2018-06-30T09:17:34.792Z,29.70
2018-06-30T09:18:38.855Z,29.80
2018-06-30T09:19:42.951Z,29.80
2018-06-30T09:20:47.090Z,29.80
2018-06-30T09:21:51.238Z,29.90
2018-06-30T09:22:55.389Z,30.00
2018-06-30T09:23:59.548Z,30.00
2018-06-30T09:25:03.743Z,30.10
2018-06-30T09:26:07.859Z,30.10
2018-06-30T09:27:11.990Z,30.10
2018-06-30T09:28:16.087Z,30.20
2018-06-30T09:29:20.220Z,30.20
2018-06-30T09:30:24.396Z,30.30
2018-06-30T09:31:28.536Z,30.30
2018-06-30T09:32:32.678Z,30.40
2018-06-30T09:33:36.825Z,30.40
2018-06-30T09:34:41.115Z,30.40
2018-06-30T09:35:45.225Z,30.50
2018-06-30T09:36:49.396Z,30.50
2018-06-30T09:37:53.692Z,30.50
2018-06-30T09:38:58.031Z,30.60
2018-06-30T09:40:02.295Z,30.60
2018-06-30T09:41:06.449Z,30.60
2018-06-30T09:42:10.616Z,30.90
2018-06-30T09:43:14.804Z,30.70
2018-06-30T09:44:19.031Z,30.80
2018-06-30T09:45:23.211Z,30.80
2018-06-30T09:46:27.373Z,30.80
2018-06-30T09:47:31.491Z,30.90
2018-06-30T09:48:35.905Z,30.90
2018-06-30T09:49:40.171Z,30.90
2018-06-30T09:50:44.258Z,31.00
2018-06-30T09:52:52.309Z,31.10
2018-06-30T09:53:56.465Z,31.10
2018-06-30T09:55:00.617Z,31.20
2018-06-30T09:56:05.094Z,31.20
2018-06-30T09:57:09.525Z,31.30
2018-06-30T09:58:13.633Z,31.30
2018-06-30T09:59:17.892Z,31.30
2018-06-30T10:00:27.387Z,31.40
2018-06-30T10:01:31.438Z,31.50
2018-06-30T10:02:35.553Z,31.50
2018-06-30T10:03:39.682Z,31.50
2018-06-30T10:04:43.861Z,31.60
2018-06-30T10:05:48.041Z,31.60
2018-06-30T10:06:53.098Z,31.70
2018-06-30T10:07:57.142Z,31.80
2018-06-30T10:10:05.243Z,31.80
2018-06-30T10:11:09.371Z,31.90
2018-06-30T10:12:13.475Z,32.00
2018-06-30T10:13:18.595Z,32.00
2018-06-30T10:14:22.969Z,32.00
2018-06-30T10:15:27.138Z,32.10
2018-06-30T10:16:31.379Z,32.10
2018-06-30T10:17:35.542Z,32.20
2018-06-30T10:18:39.733Z,32.20
2018-06-30T10:19:43.905Z,32.30
2018-06-30T10:21:51.804Z,32.40
2018-06-30T10:22:55.955Z,32.50
2018-06-30T10:24:00.143Z,32.50
2018-06-30T10:25:04.318Z,32.50
2018-06-30T10:26:08.510Z,32.60
2018-06-30T10:27:12.881Z,32.60
2018-06-30T10:28:17.120Z,32.70
2018-06-30T10:29:21.482Z,32.70
2018-06-30T10:30:25.648Z,32.70
2018-06-30T10:31:29.839Z,32.80
2018-06-30T10:32:34.004Z,32.90
2018-06-30T10:33:38.267Z,32.90
2018-06-30T10:34:42.746Z,33.00
2018-06-30T10:35:46.833Z,33.10
2018-06-30T10:36:51.014Z,33.10
2018-06-30T10:37:55.308Z,33.20
2018-06-30T10:38:59.516Z,33.30
2018-06-30T10:40:03.705Z,33.30
2018-06-30T10:42:11.621Z,33.50
2018-06-30T10:43:15.715Z,33.50
2018-06-30T10:44:19.892Z,33.60
2018-06-30T10:45:24.136Z,33.70
2018-06-30T10:47:32.048Z,33.80
2018-06-30T10:48:36.157Z,33.90
2018-06-30T10:49:40.400Z,33.90
2018-06-30T10:50:44.579Z,33.90
2018-06-30T10:51:48.893Z,33.90
2018-06-30T10:52:53.078Z,33.90
2018-06-30T10:53:57.184Z,33.90
2018-06-30T10:55:01.397Z,33.90
2018-06-30T10:56:05.560Z,33.90
2018-06-30T10:57:09.706Z,33.90
2018-06-30T10:58:13.823Z,34.00
2018-06-30T10:59:17.990Z,34.00
2018-06-30T11:00:22.236Z,34.00
2018-06-30T11:01:26.365Z,34.10
2018-06-30T11:02:30.506Z,34.10
2018-06-30T11:03:34.620Z,34.20
2018-06-30T11:04:38.716Z,34.20
2018-06-30T11:05:42.908Z,34.30
2018-06-30T11:07:50.836Z,34.30
2018-06-30T11:08:55.004Z,34.40
2018-06-30T11:09:59.298Z,34.50
2018-06-30T11:11:03.513Z,34.50
2018-06-30T11:12:07.541Z,34.60
2018-06-30T11:13:11.842Z,34.70
2018-06-30T11:14:16.033Z,34.80
2018-06-30T11:15:20.172Z,35.00
2018-06-30T11:16:24.335Z,35.20
2018-06-30T11:17:28.506Z,35.30
2018-06-30T11:18:32.654Z,35.50
2018-06-30T11:19:36.881Z,35.60
2018-06-30T11:20:41.008Z,35.80
2018-06-30T11:21:45.223Z,36.00
2018-06-30T11:22:49.344Z,36.20
2018-06-30T11:23:53.465Z,36.30
2018-06-30T11:24:57.626Z,36.50
2018-06-30T11:26:01.764Z,36.60
2018-06-30T11:27:05.992Z,36.70
2018-06-30T11:28:10.119Z,36.90
2018-06-30T11:29:14.361Z,37.00
2018-06-30T11:30:18.545Z,37.10
2018-06-30T11:31:22.706Z,37.10
2018-06-30T11:32:26.795Z,37.20
2018-06-30T11:33:30.933Z,37.30
2018-06-30T11:34:35.015Z,37.30
2018-06-30T11:35:39.420Z,37.30
2018-06-30T11:36:43.663Z,37.30
2018-06-30T11:37:47.780Z,37.30
2018-06-30T11:38:51.873Z,37.40
2018-06-30T11:39:56.048Z,37.30
2018-06-30T11:41:00.228Z,37.40
2018-06-30T11:42:04.379Z,37.40
2018-06-30T11:43:08.440Z,37.40
2018-06-30T11:44:13.123Z,37.50
2018-06-30T11:45:17.233Z,37.50
2018-06-30T11:46:21.371Z,37.60
2018-06-30T11:47:25.432Z,37.70
2018-06-30T11:48:29.602Z,37.80
2018-06-30T11:49:33.889Z,37.80
2018-06-30T11:50:38.191Z,37.90
2018-06-30T11:51:42.391Z,38.00
2018-06-30T11:52:46.575Z,38.00
2018-06-30T11:53:50.802Z,38.10
2018-06-30T11:54:55.025Z,38.20
2018-06-30T11:55:59.187Z,38.20
2018-06-30T11:57:03.284Z,38.30
2018-06-30T11:58:07.452Z,38.40
2018-06-30T11:59:11.960Z,38.40
2018-06-30T12:00:16.080Z,38.50
2018-06-30T12:01:20.167Z,38.70
2018-06-30T12:02:24.275Z,38.80
2018-06-30T12:04:32.283Z,39.00
2018-06-30T12:05:36.413Z,39.10
2018-06-30T12:06:40.529Z,39.10
2018-06-30T12:07:44.818Z,39.20
2018-06-30T12:09:52.958Z,39.30
2018-06-30T12:10:57.135Z,39.40
2018-06-30T12:12:01.494Z,39.40
2018-06-30T12:13:05.582Z,39.50
2018-06-30T12:14:09.976Z,39.50
2018-06-30T12:15:14.093Z,39.50
2018-06-30T12:16:18.203Z,39.50
2018-06-30T12:17:22.569Z,39.50
2018-06-30T12:18:26.777Z,39.50
2018-06-30T12:19:30.931Z,39.50
2018-06-30T12:21:39.017Z,39.60
2018-06-30T12:22:43.143Z,39.70
2018-06-30T12:23:47.242Z,39.70
2018-06-30T12:24:51.573Z,39.80
2018-06-30T12:25:55.716Z,39.80
2018-06-30T12:26:59.745Z,39.90
2018-06-30T12:28:03.947Z,40.00
2018-06-30T12:29:08.089Z,40.10
2018-06-30T12:30:12.210Z,40.10
2018-06-30T12:31:16.372Z,40.20
2018-06-30T12:32:20.657Z,40.20
2018-06-30T12:33:24.697Z,40.30
2018-06-30T12:35:32.554Z,40.40
2018-06-30T12:36:36.642Z,40.40
2018-06-30T12:37:40.707Z,40.30
2018-06-30T12:39:48.524Z,40.30
2018-06-30T12:40:52.642Z,40.30
2018-06-30T12:41:56.701Z,40.20
2018-06-30T12:44:04.719Z,40.10
2018-06-30T12:45:08.936Z,40.00
2018-06-30T12:46:13.016Z,39.90
2018-06-30T12:47:17.204Z,39.80
2018-06-30T12:48:22.021Z,39.80
2018-06-30T12:49:26.225Z,39.70
2018-06-30T12:50:30.363Z,39.60
2018-06-30T12:51:34.628Z,39.60
2018-06-30T12:52:38.875Z,39.60
2018-06-30T12:53:43.021Z,39.50
2018-06-30T12:54:47.280Z,39.50
2018-06-30T12:55:51.407Z,39.40
2018-06-30T12:56:55.601Z,39.40
2018-06-30T12:57:59.719Z,39.30
2018-06-30T12:59:03.915Z,39.20
2018-06-30T13:00:08.090Z,39.10
2018-06-30T13:01:12.235Z,38.90
2018-06-30T13:02:16.506Z,38.80
2018-06-30T13:03:20.819Z,38.70
2018-06-30T13:04:24.982Z,38.50
2018-06-30T13:05:29.460Z,38.40
2018-06-30T13:06:33.587Z,38.30
2018-06-30T13:07:37.793Z,38.20
2018-06-30T13:08:42.069Z,38.10
2018-06-30T13:09:46.233Z,38.10
2018-06-30T13:10:50.418Z,38.10
2018-06-30T13:11:54.650Z,38.10
2018-06-30T13:12:58.786Z,38.20
2018-06-30T13:14:03.024Z,38.30
2018-06-30T13:15:07.194Z,38.30
2018-06-30T13:16:11.346Z,38.40
2018-06-30T13:17:15.529Z,38.60
2018-06-30T13:18:19.669Z,38.70
2018-06-30T13:19:23.876Z,38.80
2018-06-30T13:20:28.027Z,38.90
2018-06-30T13:21:32.218Z,39.00
2018-06-30T13:22:36.359Z,39.20
2018-06-30T13:23:40.427Z,39.30
2018-06-30T13:24:44.528Z,39.40
2018-06-30T13:25:48.787Z,39.50
2018-06-30T13:26:52.918Z,39.60
2018-06-30T13:27:57.056Z,39.80
2018-06-30T13:29:01.347Z,39.90
2018-06-30T13:30:06.240Z,40.00
2018-06-30T13:31:10.315Z,40.10
2018-06-30T13:32:14.416Z,40.10
2018-06-30T13:33:18.545Z,40.30
2018-06-30T13:34:22.740Z,40.40
2018-06-30T13:35:26.929Z,40.40
2018-06-30T13:36:31.085Z,40.50
2018-06-30T13:37:35.201Z,40.60
2018-06-30T13:38:39.365Z,40.70
2018-06-30T13:39:43.570Z,40.80
2018-06-30T13:40:47.645Z,40.80
2018-06-30T13:41:51.943Z,40.80
2018-06-30T13:42:56.066Z,40.90
2018-06-30T13:44:00.158Z,40.90
2018-06-30T13:45:04.725Z,41.00
2018-06-30T13:46:08.890Z,41.10
2018-06-30T13:47:13.099Z,41.00
2018-06-30T13:48:17.242Z,41.00
2018-06-30T13:49:21.391Z,41.00
2018-06-30T13:50:25.554Z,41.00
2018-06-30T13:51:29.781Z,41.10
2018-06-30T13:53:37.614Z,40.90
2018-06-30T13:54:41.740Z,40.90
2018-06-30T13:55:45.907Z,40.80
2018-06-30T13:56:50.060Z,40.70
2018-06-30T13:57:54.214Z,40.60
2018-06-30T13:58:58.534Z,40.60
2018-06-30T14:00:02.703Z,40.40
2018-06-30T14:01:06.811Z,40.40
2018-06-30T14:02:10.986Z,40.30
2018-06-30T14:03:15.107Z,40.30
2018-06-30T14:04:19.157Z,40.20
2018-06-30T14:05:23.286Z,40.10
2018-06-30T14:06:27.400Z,40.10
2018-06-30T14:07:31.523Z,40.00
2018-06-30T14:08:35.737Z,40.00
2018-06-30T14:09:39.852Z,40.00
2018-06-30T14:10:44.009Z,39.90
2018-06-30T14:11:48.172Z,39.80
2018-06-30T14:12:52.550Z,39.80
2018-06-30T14:13:56.718Z,39.80
2018-06-30T14:15:00.866Z,39.70
2018-06-30T14:16:05.293Z,39.70
2018-06-30T14:17:09.393Z,39.70
2018-06-30T14:18:13.641Z,39.70
2018-06-30T14:19:17.783Z,39.60
2018-06-30T14:20:22.097Z,39.60
2018-06-30T14:21:26.267Z,39.60
2018-06-30T14:22:30.410Z,39.50
2018-06-30T14:23:34.607Z,39.40
2018-06-30T14:24:38.736Z,39.40
2018-06-30T14:25:42.947Z,39.30